sensor_id;sensor_type;location;lat;lon;timestamp;pressure;altitude;pressure_sealevel;temperature;humidity
14612;BME280;7392;52.078;11.650;2024-02-26T00:00:45;99628.38;;;0.54;100.00
14612;BME280;7392;52.078;11.650;2024-02-26T00:03:14;99630.03;;;0.50;100.00
14612;BME280;7392;52.078;11.650;2024-02-26T00:05:43;99618.66;;;0.47;100.00
14612;BME280;7392;52.078;11.650;2024-02-26T00:08:11;99628.19;;;0.45;100.00
14612;BME280;7392;52.078;11.650;2024-02-26T00:10:38;99619.41;;;0.41;100.00
14612;BME280;7392;52.078;11.650;2024-02-26T00:13:06;99627.22;;;0.40;100.00
14612;BME280;7392;52.078;11.650;2024-02-26T00:15:34;99627.97;;;0.35;100.00
14612;BME280;7392;52.078;11.650;2024-02-26T00:18:02;99621.84;;;0.33;100.00
14612;BME280;7392;52.078;11.650;2024-02-26T00:20:33;99614.81;;;0.29;100.00
14612;BME280;7392;52.078;11.650;2024-02-26T00:23:00;99618.22;;;0.27;100.00
14612;BME280;7392;52.078;11.650;2024-02-26T00:25:28;99609.44;;;0.23;100.00
14612;BME280;7392;52.078;11.650;2024-02-26T00:27:56;99611.97;;;0.20;100.00
14612;BME280;7392;52.078;11.650;2024-02-26T00:30:25;99613.66;;;0.16;100.00
14612;BME280;7392;52.078;11.650;2024-02-26T00:32:53;99611.88;;;0.14;100.00
14612;BME280;7392;52.078;11.650;2024-02-26T00:35:21;99608.31;;;0.10;100.00
14612;BME280;7392;52.078;11.650;2024-02-26T00:37:50;99609.97;;;0.08;100.00
14612;BME280;7392;52.078;11.650;2024-02-26T00:40:18;99605.53;;;0.04;100.00
14612;BME280;7392;52.078;11.650;2024-02-26T00:42:46;99595.91;;;0.02;100.00
14612;BME280;7392;52.078;11.650;2024-02-26T00:45:14;99602.81;;;-0.01;100.00
14612;BME280;7392;52.078;11.650;2024-02-26T00:47:43;99600.13;;;-0.04;100.00
14612;BME280;7392;52.078;11.650;2024-02-26T00:50:14;99602.72;;;-0.07;100.00
14612;BME280;7392;52.078;11.650;2024-02-26T00:52:42;99607.00;;;-0.09;100.00
14612;BME280;7392;52.078;11.650;2024-02-26T00:55:11;99606.06;;;-0.11;100.00
14612;BME280;7392;52.078;11.650;2024-02-26T00:57:39;99603.38;;;-0.14;100.00
14612;BME280;7392;52.078;11.650;2024-02-26T01:00:08;99598.13;;;-0.17;100.00
14612;BME280;7392;52.078;11.650;2024-02-26T01:02:36;99592.88;;;-0.18;100.00
14612;BME280;7392;52.078;11.650;2024-02-26T01:05:06;99594.53;;;-0.21;100.00
14612;BME280;7392;52.078;11.650;2024-02-26T01:07:34;99593.59;;;-0.24;100.00
14612;BME280;7392;52.078;11.650;2024-02-26T01:10:04;99597.06;;;-0.25;100.00
14612;BME280;7392;52.078;11.650;2024-02-26T01:12:33;99591.75;;;-0.28;100.00
14612;BME280;7392;52.078;11.650;2024-02-26T01:15:02;99600.38;;;-0.31;100.00
14612;BME280;7392;52.078;11.650;2024-02-26T01:17:30;99590.78;;;-0.33;100.00
14612;BME280;7392;52.078;11.650;2024-02-26T01:19:58;99593.31;;;-0.36;100.00
14612;BME280;7392;52.078;11.650;2024-02-26T01:22:26;99591.53;;;-0.39;100.00
14612;BME280;7392;52.078;11.650;2024-02-26T01:24:54;99594.09;;;-0.41;100.00
14612;BME280;7392;52.078;11.650;2024-02-26T01:27:23;99586.16;;;-0.45;100.00
14612;BME280;7392;52.078;11.650;2024-02-26T01:29:54;99580.00;;;-0.47;100.00
14612;BME280;7392;52.078;11.650;2024-02-26T01:32:22;99584.31;;;-0.49;100.00
14612;BME280;7392;52.078;11.650;2024-02-26T01:34:50;99584.31;;;-0.49;100.00
14612;BME280;7392;52.078;11.650;2024-02-26T01:37:18;99577.28;;;-0.52;100.00
14612;BME280;7392;52.078;11.650;2024-02-26T01:39:46;99590.34;;;-0.52;100.00
14612;BME280;7392;52.078;11.650;2024-02-26T01:42:14;99583.38;;;-0.53;100.00
14612;BME280;7392;52.078;11.650;2024-02-26T01:44:42;99578.13;;;-0.54;100.00
14612;BME280;7392;52.078;11.650;2024-02-26T01:47:11;99574.59;;;-0.55;100.00
14612;BME280;7392;52.078;11.650;2024-02-26T01:49:41;99591.13;;;-0.56;100.00
14612;BME280;7392;52.078;11.650;2024-02-26T01:52:09;99589.38;;;-0.55;100.00
14612;BME280;7392;52.078;11.650;2024-02-26T01:54:38;99571.13;;;-0.55;100.00
14612;BME280;7392;52.078;11.650;2024-02-26T01:57:08;99575.47;;;-0.56;100.00
14612;BME280;7392;52.078;11.650;2024-02-26T01:59:37;99568.47;;;-0.57;100.00
14612;BME280;7392;52.078;11.650;2024-02-26T02:02:06;99570.22;;;-0.58;100.00
14612;BME280;7392;52.078;11.650;2024-02-26T02:04:37;99571.03;;;-0.59;100.00
14612;BME280;7392;52.078;11.650;2024-02-26T02:07:05;99570.16;;;-0.59;100.00
14612;BME280;7392;52.078;11.650;2024-02-26T02:09:33;99580.59;;;-0.59;100.00
14612;BME280;7392;52.078;11.650;2024-02-26T02:12:01;99570.16;;;-0.59;100.00
14612;BME280;7392;52.078;11.650;2024-02-26T02:14:29;99573.56;;;-0.62;100.00
14612;BME280;7392;52.078;11.650;2024-02-26T02:16:57;99574.44;;;-0.63;100.00
14612;BME280;7392;52.078;11.650;2024-02-26T02:19:25;99569.22;;;-0.63;100.00
14612;BME280;7392;52.078;11.650;2024-02-26T02:21:54;99566.53;;;-0.66;100.00
14612;BME280;7392;52.078;11.650;2024-02-26T02:24:22;99576.09;;;-0.66;100.00
14612;BME280;7392;52.078;11.650;2024-02-26T02:26:50;99574.38;;;-0.64;100.00
14612;BME280;7392;52.078;11.650;2024-02-26T02:29:18;99572.63;;;-0.65;100.00
14612;BME280;7392;52.078;11.650;2024-02-26T02:31:46;99562.19;;;-0.65;100.00
14612;BME280;7392;52.078;11.650;2024-02-26T02:34:14;99560.44;;;-0.66;100.00
14612;BME280;7392;52.078;11.650;2024-02-26T02:36:50;99573.47;;;-0.66;100.00
14612;BME280;7392;52.078;11.650;2024-02-26T02:39:20;99570.88;;;-0.66;100.00
14612;BME280;7392;52.078;11.650;2024-02-26T02:41:48;99572.53;;;-0.68;100.00
14612;BME280;7392;52.078;11.650;2024-02-26T02:44:17;99578.56;;;-0.71;100.00
14612;BME280;7392;52.078;11.650;2024-02-26T02:46:45;99582.91;;;-0.71;100.00
14612;BME280;7392;52.078;11.650;2024-02-26T02:49:13;99590.75;;;-0.71;100.00
14612;BME280;7392;52.078;11.650;2024-02-26T02:51:41;99595.91;;;-0.73;100.00
14612;BME280;7392;52.078;11.650;2024-02-26T02:54:09;99595.00;;;-0.73;100.00
14612;BME280;7392;52.078;11.650;2024-02-26T02:56:38;99602.81;;;-0.75;100.00
14612;BME280;7392;52.078;11.650;2024-02-26T02:59:06;99594.97;;;-0.77;100.00
14612;BME280;7392;52.078;11.650;2024-02-26T03:01:34;99594.91;;;-0.78;100.00
14612;BME280;7392;52.078;11.650;2024-02-26T03:04:02;99587.06;;;-0.80;100.00
14612;BME280;7392;52.078;11.650;2024-02-26T03:06:30;99582.66;;;-0.81;100.00
14612;BME280;7392;52.078;11.650;2024-02-26T03:08:58;99589.63;;;-0.81;100.00
14612;BME280;7392;52.078;11.650;2024-02-26T03:11:27;99591.34;;;-0.82;100.00
14612;BME280;7392;52.078;11.650;2024-02-26T03:13:57;99602.63;;;-0.83;100.00
14612;BME280;7392;52.078;11.650;2024-02-26T03:16:24;99598.22;;;-0.84;100.00
14612;BME280;7392;52.078;11.650;2024-02-26T03:18:52;99603.44;;;-0.84;100.00
14612;BME280;7392;52.078;11.650;2024-02-26T03:21:21;99603.44;;;-0.85;100.00
14612;BME280;7392;52.078;11.650;2024-02-26T03:23:49;99604.31;;;-0.85;100.00
14612;BME280;7392;52.078;11.650;2024-02-26T03:26:17;99601.69;;;-0.85;100.00
14612;BME280;7392;52.078;11.650;2024-02-26T03:28:45;99603.44;;;-0.85;100.00
14612;BME280;7392;52.078;11.650;2024-02-26T03:31:14;99605.09;;;-0.87;100.00
14612;BME280;7392;52.078;11.650;2024-02-26T03:33:42;99604.22;;;-0.88;100.00
14612;BME280;7392;52.078;11.650;2024-02-26T03:36:10;99621.59;;;-0.88;100.00
14612;BME280;7392;52.078;11.650;2024-02-26T03:38:38;99616.38;;;-0.88;100.00
14612;BME280;7392;52.078;11.650;2024-02-26T03:41:06;99614.59;;;-0.89;100.00
14612;BME280;7392;52.078;11.650;2024-02-26T03:43:36;99625.03;;;-0.89;100.00
14612;BME280;7392;52.078;11.650;2024-02-26T03:46:04;99625.03;;;-0.89;100.00
14612;BME280;7392;52.078;11.650;2024-02-26T03:48:35;99624.13;;;-0.91;100.00
14612;BME280;7392;52.078;11.650;2024-02-26T03:51:04;99624.13;;;-0.91;100.00
14612;BME280;7392;52.078;11.650;2024-02-26T03:53:32;99634.50;;;-0.93;100.00
14612;BME280;7392;52.078;11.650;2024-02-26T03:56:03;99635.34;;;-0.94;100.00
14612;BME280;7392;52.078;11.650;2024-02-26T03:58:31;99632.72;;;-0.96;100.00
14612;BME280;7392;52.078;11.650;2024-02-26T04:00:59;99639.63;;;-0.96;100.00
14612;BME280;7392;52.078;11.650;2024-02-26T04:03:27;99639.59;;;-0.98;100.00
14612;BME280;7392;52.078;11.650;2024-02-26T04:05:57;99647.41;;;-0.98;100.00
14612;BME280;7392;52.078;11.650;2024-02-26T04:08:25;99644.75;;;-1.01;100.00
14612;BME280;7392;52.078;11.650;2024-02-26T04:10:53;99645.53;;;-1.03;100.00
14612;BME280;7392;52.078;11.650;2024-02-26T04:13:20;99645.47;;;-1.05;100.00
14612;BME280;7392;52.078;11.650;2024-02-26T04:15:48;99650.69;;;-1.05;100.00
14612;BME280;7392;52.078;11.650;2024-02-26T04:18:16;99648.00;;;-1.08;100.00
14612;BME280;7392;52.078;11.650;2024-02-26T04:20:45;99644.47;;;-1.10;100.00
14612;BME280;7392;52.078;11.650;2024-02-26T04:23:14;99638.34;;;-1.12;100.00
14612;BME280;7392;52.078;11.650;2024-02-26T04:25:42;99640.03;;;-1.14;100.00
14612;BME280;7392;52.078;11.650;2024-02-26T04:28:10;99643.50;;;-1.14;100.00
14612;BME280;7392;52.078;11.650;2024-02-26T04:30:39;99644.34;;;-1.15;100.00
14612;BME280;7392;52.078;11.650;2024-02-26T04:33:07;99641.72;;;-1.16;100.00
14612;BME280;7392;52.078;11.650;2024-02-26T04:35:35;99639.94;;;-1.17;100.00
14612;BME280;7392;52.078;11.650;2024-02-26T04:38:03;99640.81;;;-1.17;100.00
14612;BME280;7392;52.078;11.650;2024-02-26T04:40:33;99632.94;;;-1.18;100.00
14612;BME280;7392;52.078;11.650;2024-02-26T04:43:01;99632.91;;;-1.20;100.00
14612;BME280;7392;52.078;11.650;2024-02-26T04:45:28;99632.94;;;-1.18;100.00
14612;BME280;7392;52.078;11.650;2024-02-26T04:47:57;99630.31;;;-1.20;100.00
14612;BME280;7392;52.078;11.650;2024-02-26T04:50:25;99632.00;;;-1.22;100.00
14612;BME280;7392;52.078;11.650;2024-02-26T04:52:53;99638.06;;;-1.23;100.00
14612;BME280;7392;52.078;11.650;2024-02-26T04:55:21;99635.41;;;-1.24;100.00
14612;BME280;7392;52.078;11.650;2024-02-26T04:57:51;99644.94;;;-1.25;100.00
14612;BME280;7392;52.078;11.650;2024-02-26T05:00:19;99644.91;;;-1.26;100.00
14612;BME280;7392;52.078;11.650;2024-02-26T05:02:47;99646.63;;;-1.27;100.00
14612;BME280;7392;52.078;11.650;2024-02-26T05:05:15;99645.75;;;-1.27;100.00
14612;BME280;7392;52.078;11.650;2024-02-26T05:07:43;99647.44;;;-1.29;100.00
14612;BME280;7392;52.078;11.650;2024-02-26T05:10:12;99649.13;;;-1.30;100.00
14612;BME280;7392;52.078;11.650;2024-02-26T05:12:40;99655.25;;;-1.29;100.00
14612;BME280;7392;52.078;11.650;2024-02-26T05:15:10;99662.16;;;-1.30;100.00
14612;BME280;7392;52.078;11.650;2024-02-26T05:17:44;99664.81;;;-1.28;100.00
14612;BME280;7392;52.078;11.650;2024-02-26T05:20:13;99664.75;;;-1.30;100.00
14612;BME280;7392;52.078;11.650;2024-02-26T05:22:41;99658.69;;;-1.30;100.00
14612;BME280;7392;52.078;11.650;2024-02-26T05:25:09;99668.28;;;-1.29;100.00
14612;BME280;7392;52.078;11.650;2024-02-26T05:27:36;99670.88;;;-1.29;100.00
14612;BME280;7392;52.078;11.650;2024-02-26T05:30:06;99672.56;;;-1.32;100.00
14612;BME280;7392;52.078;11.650;2024-02-26T05:32:35;99678.66;;;-1.31;100.00
14612;BME280;7392;52.078;11.650;2024-02-26T05:35:04;99676.03;;;-1.31;100.00
14612;BME280;7392;52.078;11.650;2024-02-26T05:37:32;99682.97;;;-1.32;100.00
14612;BME280;7392;52.078;11.650;2024-02-26T05:40:00;99684.63;;;-1.34;100.00
14612;BME280;7392;52.078;11.650;2024-02-26T05:42:31;99693.34;;;-1.33;100.00
14612;BME280;7392;52.078;11.650;2024-02-26T05:45:00;99697.63;;;-1.35;100.00
14612;BME280;7392;52.078;11.650;2024-02-26T05:47:32;99693.31;;;-1.35;100.00
14612;BME280;7392;52.078;11.650;2024-02-26T05:50:02;99692.41;;;-1.35;100.00
14612;BME280;7392;52.078;11.650;2024-02-26T05:52:30;99694.94;;;-1.38;100.00
14612;BME280;7392;52.078;11.650;2024-02-26T05:54:58;99692.34;;;-1.38;100.00
14612;BME280;7392;52.078;11.650;2024-02-26T05:57:26;99692.28;;;-1.40;100.00
14612;BME280;7392;52.078;11.650;2024-02-26T05:59:54;99688.78;;;-1.40;100.00
14612;BME280;7392;52.078;11.650;2024-02-26T06:02:22;99686.19;;;-1.40;100.00
14612;BME280;7392;52.078;11.650;2024-02-26T06:04:50;99689.69;;;-1.40;100.00
14612;BME280;7392;52.078;11.650;2024-02-26T06:07:20;99695.69;;;-1.42;100.00
14612;BME280;7392;52.078;11.650;2024-02-26T06:09:47;99694.84;;;-1.41;100.00
14612;BME280;7392;52.078;11.650;2024-02-26T06:12:16;99697.47;;;-1.41;100.00
14612;BME280;7392;52.078;11.650;2024-02-26T06:14:44;99692.28;;;-1.40;100.00
14612;BME280;7392;52.078;11.650;2024-02-26T06:17:12;99690.56;;;-1.39;100.00
14612;BME280;7392;52.078;11.650;2024-02-26T06:19:40;99687.13;;;-1.38;100.00
14612;BME280;7392;52.078;11.650;2024-02-26T06:22:08;99690.63;;;-1.38;100.00
14612;BME280;7392;52.078;11.650;2024-02-26T06:24:37;99688.00;;;-1.38;100.00
14612;BME280;7392;52.078;11.650;2024-02-26T06:27:05;99688.94;;;-1.36;100.00
14612;BME280;7392;52.078;11.650;2024-02-26T06:29:33;99695.06;;;-1.34;100.00
14612;BME280;7392;52.078;11.650;2024-02-26T06:32:02;99691.63;;;-1.33;100.00
14612;BME280;7392;52.078;11.650;2024-02-26T06:34:29;99696.88;;;-1.31;100.00
14612;BME280;7392;52.078;11.650;2024-02-26T06:36:58;99704.78;;;-1.28;100.00
14612;BME280;7392;52.078;11.650;2024-02-26T06:39:26;99702.25;;;-1.25;100.00
14612;BME280;7392;52.078;11.650;2024-02-26T06:41:55;99712.81;;;-1.20;100.00
14612;BME280;7392;52.078;11.650;2024-02-26T06:44:27;99714.66;;;-1.18;100.00
14612;BME280;7392;52.078;11.650;2024-02-26T06:46:58;99715.66;;;-1.13;100.00
14612;BME280;7392;52.078;11.650;2024-02-26T06:49:27;99721.84;;;-1.09;100.00
14612;BME280;7392;52.078;11.650;2024-02-26T06:51:55;99724.56;;;-1.04;100.00
14612;BME280;7392;52.078;11.650;2024-02-26T06:54:23;99719.44;;;-1.01;100.00
14612;BME280;7392;52.078;11.650;2024-02-26T06:56:51;99712.63;;;-0.96;100.00
14612;BME280;7392;52.078;11.650;2024-02-26T06:59:21;99719.75;;;-0.90;100.00
14612;BME280;7392;52.078;11.650;2024-02-26T07:01:50;99723.38;;;-0.84;100.00
14612;BME280;7392;52.078;11.650;2024-02-26T07:04:18;99726.13;;;-0.79;100.00
14612;BME280;7392;52.078;11.650;2024-02-26T07:06:47;99722.84;;;-0.72;100.00
14612;BME280;7392;52.078;11.650;2024-02-26T07:09:15;99727.38;;;-0.66;100.00
14612;BME280;7392;52.078;11.650;2024-02-26T07:11:43;99732.72;;;-0.60;100.00
14612;BME280;7392;52.078;11.650;2024-02-26T07:14:12;99732.91;;;-0.54;100.00
14612;BME280;7392;52.078;11.650;2024-02-26T07:16:41;99734.81;;;-0.47;100.00
14612;BME280;7392;52.078;11.650;2024-02-26T07:19:09;99732.38;;;-0.41;100.00
14612;BME280;7392;52.078;11.650;2024-02-26T07:21:37;99734.25;;;-0.35;100.00
14612;BME280;7392;52.078;11.650;2024-02-26T07:24:06;99744.91;;;-0.26;100.00
14612;BME280;7392;52.078;11.650;2024-02-26T07:26:34;99740.69;;;-0.21;100.00
14612;BME280;7392;52.078;11.650;2024-02-26T07:29:02;99737.44;;;-0.13;100.00
14612;BME280;7392;52.078;11.650;2024-02-26T07:31:30;99745.38;;;-0.07;100.00
14612;BME280;7392;52.078;11.650;2024-02-26T07:34:00;99742.09;;;0.00;100.00
14612;BME280;7392;52.078;11.650;2024-02-26T07:36:28;99741.41;;;0.07;100.00
14612;BME280;7392;52.078;11.650;2024-02-26T07:38:56;99741.63;;;0.16;100.00
14612;BME280;7392;52.078;11.650;2024-02-26T07:41:24;99740.84;;;0.21;100.00
14612;BME280;7392;52.078;11.650;2024-02-26T07:43:53;99749.78;;;0.30;100.00
14612;BME280;7392;52.078;11.650;2024-02-26T07:46:21;99746.44;;;0.37;100.00
14612;BME280;7392;52.078;11.650;2024-02-26T07:48:49;99747.50;;;0.46;100.00
14612;BME280;7392;52.078;11.650;2024-02-26T07:51:19;99746.84;;;0.54;100.00
14612;BME280;7392;52.078;11.650;2024-02-26T07:53:47;99743.53;;;0.63;100.00
14612;BME280;7392;52.078;11.650;2024-02-26T07:56:15;99744.66;;;0.74;100.00
14612;BME280;7392;52.078;11.650;2024-02-26T07:58:43;99737.00;;;0.82;100.00
14612;BME280;7392;52.078;11.650;2024-02-26T08:01:13;99744.19;;;0.92;100.00
14612;BME280;7392;52.078;11.650;2024-02-26T08:03:40;99750.44;;;1.01;100.00
14612;BME280;7392;52.078;11.650;2024-02-26T08:06:09;99748.94;;;1.12;100.00
14612;BME280;7392;52.078;11.650;2024-02-26T08:08:38;99749.13;;;1.23;100.00
14612;BME280;7392;52.078;11.650;2024-02-26T08:11:06;99740.63;;;1.33;100.00
14612;BME280;7392;52.078;11.650;2024-02-26T08:13:35;99748.69;;;1.44;100.00
14612;BME280;7392;52.078;11.650;2024-02-26T08:16:04;99761.09;;;1.54;100.00
14612;BME280;7392;52.078;11.650;2024-02-26T08:18:33;99756.09;;;1.66;100.00
14612;BME280;7392;52.078;11.650;2024-02-26T08:21:01;99763.28;;;1.78;100.00
14612;BME280;7392;52.078;11.650;2024-02-26T08:23:30;99755.59;;;1.89;100.00
14612;BME280;7392;52.078;11.650;2024-02-26T08:26:00;99760.16;;;2.01;100.00
14612;BME280;7392;52.078;11.650;2024-02-26T08:28:27;99762.97;;;2.12;100.00
14612;BME280;7392;52.078;11.650;2024-02-26T08:30:55;99757.00;;;2.22;100.00
14612;BME280;7392;52.078;11.650;2024-02-26T08:33:24;99759.81;;;2.33;100.00
14612;BME280;7392;52.078;11.650;2024-02-26T08:35:52;99773.09;;;2.45;100.00
14612;BME280;7392;52.078;11.650;2024-02-26T08:38:20;99767.13;;;2.54;100.00
14612;BME280;7392;52.078;11.650;2024-02-26T08:40:48;99774.25;;;2.64;100.00
14612;BME280;7392;52.078;11.650;2024-02-26T08:43:18;99780.53;;;2.74;100.00
14612;BME280;7392;52.078;11.650;2024-02-26T08:45:46;99789.38;;;2.82;100.00
14612;BME280;7392;52.078;11.650;2024-02-26T08:48:14;99792.97;;;2.90;100.00
14612;BME280;7392;52.078;11.650;2024-02-26T08:50:43;99787.88;;;2.99;100.00
14612;BME280;7392;52.078;11.650;2024-02-26T08:53:11;99788.84;;;3.08;100.00
14612;BME280;7392;52.078;11.650;2024-02-26T08:55:39;99785.44;;;3.15;100.00
14612;BME280;7392;52.078;11.650;2024-02-26T08:58:07;99787.31;;;3.25;100.00
14612;BME280;7392;52.078;11.650;2024-02-26T09:00:36;99788.31;;;3.33;100.00
14612;BME280;7392;52.078;11.650;2024-02-26T09:03:05;99786.63;;;3.43;100.00
14612;BME280;7392;52.078;11.650;2024-02-26T09:05:33;99790.25;;;3.53;100.00
14612;BME280;7392;52.078;11.650;2024-02-26T09:08:01;99788.63;;;3.63;100.00
14612;BME280;7392;52.078;11.650;2024-02-26T09:10:29;99784.34;;;3.74;100.00
14612;BME280;7392;52.078;11.650;2024-02-26T09:12:57;99796.72;;;3.84;100.00
14612;BME280;7392;52.078;11.650;2024-02-26T09:15:25;99797.69;;;3.94;100.00
14612;BME280;7392;52.078;11.650;2024-02-26T09:17:54;99799.53;;;4.03;100.00
14612;BME280;7392;52.078;11.650;2024-02-26T09:20:22;99790.84;;;4.11;100.00
14612;BME280;7392;52.078;11.650;2024-02-26T09:22:50;99792.66;;;4.17;100.00
14612;BME280;7392;52.078;11.650;2024-02-26T09:25:18;99791.88;;;4.27;100.00
14612;BME280;7392;52.078;11.650;2024-02-26T09:27:46;99794.59;;;4.38;100.00
14612;BME280;7392;52.078;11.650;2024-02-26T09:30:14;99790.28;;;4.48;100.00
14612;BME280;7392;52.078;11.650;2024-02-26T09:32:46;99792.13;;;4.61;100.00
14612;BME280;7392;52.078;11.650;2024-02-26T09:35:15;99787.84;;;4.76;100.00
14612;BME280;7392;52.078;11.650;2024-02-26T09:37:43;99794.03;;;4.90;100.00
14612;BME280;7392;52.078;11.650;2024-02-26T09:40:12;99787.13;;;5.03;100.00
14612;BME280;7392;52.078;11.650;2024-02-26T09:42:43;99781.06;;;5.18;100.00
14612;BME280;7392;52.078;11.650;2024-02-26T09:45:17;99787.25;;;5.34;100.00
14612;BME280;7392;52.078;11.650;2024-02-26T09:47:47;99782.03;;;5.48;100.00
14612;BME280;7392;52.078;11.650;2024-02-26T09:50:18;99780.31;;;5.59;100.00
14612;BME280;7392;52.078;11.650;2024-02-26T09:52:51;99785.63;;;5.71;100.00
14612;BME280;7392;52.078;11.650;2024-02-26T09:55:19;99792.66;;;5.81;100.00
14612;BME280;7392;52.078;11.650;2024-02-26T09:57:48;99790.94;;;5.93;100.00
14612;BME280;7392;52.078;11.650;2024-02-26T10:00:20;99798.03;;;6.03;100.00
14612;BME280;7392;52.078;11.650;2024-02-26T10:02:49;99803.28;;;6.12;100.00
14612;BME280;7392;52.078;11.650;2024-02-26T10:05:21;99797.16;;;6.23;100.00
14612;BME280;7392;52.078;11.650;2024-02-26T10:07:50;99808.59;;;6.32;100.00
14612;BME280;7392;52.078;11.650;2024-02-26T10:10:19;99806.81;;;6.38;100.00
14612;BME280;7392;52.078;11.650;2024-02-26T10:12:47;99800.66;;;6.45;100.00
14612;BME280;7392;52.078;11.650;2024-02-26T10:15:15;99809.47;;;6.53;100.00
14612;BME280;7392;52.078;11.650;2024-02-26T10:17:43;99807.69;;;6.61;100.00
14612;BME280;7392;52.078;11.650;2024-02-26T10:20:12;99810.31;;;6.69;100.00
14612;BME280;7392;52.078;11.650;2024-02-26T10:22:43;99809.41;;;6.76;100.00
14612;BME280;7392;52.078;11.650;2024-02-26T10:25:12;99798.88;;;6.81;100.00
14612;BME280;7392;52.078;11.650;2024-02-26T10:27:40;99801.50;;;6.84;100.00
14612;BME280;7392;52.078;11.650;2024-02-26T10:30:19;99802.38;;;6.86;100.00
14612;BME280;7392;52.078;11.650;2024-02-26T10:32:50;99814.66;;;6.90;100.00
14612;BME280;7392;52.078;11.650;2024-02-26T10:35:19;99811.16;;;6.92;100.00
14612;BME280;7392;52.078;11.650;2024-02-26T10:37:50;99813.81;;;6.96;100.00
14612;BME280;7392;52.078;11.650;2024-02-26T10:40:18;99807.63;;;7.00;100.00
14612;BME280;7392;52.078;11.650;2024-02-26T10:42:46;99818.19;;;7.03;100.00
14612;BME280;7392;52.078;11.650;2024-02-26T10:45:14;99814.63;;;7.05;100.00
14612;BME280;7392;52.078;11.650;2024-02-26T10:47:43;99812.00;;;7.07;100.00
14612;BME280;7392;52.078;11.650;2024-02-26T10:50:13;99809.34;;;7.08;100.00
14612;BME280;7392;52.078;11.650;2024-02-26T10:52:43;99811.13;;;7.09;100.00
14612;BME280;7392;52.078;11.650;2024-02-26T10:55:15;99821.69;;;7.11;100.00
14612;BME280;7392;52.078;11.650;2024-02-26T10:57:47;99819.03;;;7.13;100.00
14612;BME280;7392;52.078;11.650;2024-02-26T11:00:16;99831.34;;;7.14;100.00
14612;BME280;7392;52.078;11.650;2024-02-26T11:02:45;99829.59;;;7.14;100.00
14612;BME280;7392;52.078;11.650;2024-02-26T11:05:14;99828.72;;;7.17;100.00
14612;BME280;7392;52.078;11.650;2024-02-26T11:07:43;99820.78;;;7.18;100.00
14612;BME280;7392;52.078;11.650;2024-02-26T11:10:15;99823.41;;;7.18;100.00
14612;BME280;7392;52.078;11.650;2024-02-26T11:12:45;99808.44;;;7.17;100.00
14612;BME280;7392;52.078;11.650;2024-02-26T11:15:14;99805.81;;;7.17;100.00
14612;BME280;7392;52.078;11.650;2024-02-26T11:17:44;99808.44;;;7.19;100.00
14612;BME280;7392;52.078;11.650;2024-02-26T11:20:14;99810.22;;;7.18;100.00
14612;BME280;7392;52.078;11.650;2024-02-26T11:22:55;99806.72;;;7.18;100.00
14612;BME280;7392;52.078;11.650;2024-02-26T11:25:23;99808.44;;;7.20;100.00
14612;BME280;7392;52.078;11.650;2024-02-26T11:27:56;99807.56;;;7.24;100.00
14612;BME280;7392;52.078;11.650;2024-02-26T11:31:15;99801.38;;;7.28;100.00
14612;BME280;7392;52.078;11.650;2024-02-26T11:33:45;99797.88;;;7.29;100.00
14612;BME280;7392;52.078;11.650;2024-02-26T11:36:14;99798.72;;;7.32;100.00
14612;BME280;7392;52.078;11.650;2024-02-26T11:38:42;99801.31;;;7.38;100.00
14612;BME280;7392;52.078;11.650;2024-02-26T11:41:10;99797.81;;;7.39;100.00
14612;BME280;7392;52.078;11.650;2024-02-26T11:43:51;99801.31;;;7.42;100.00
14612;BME280;7392;52.078;11.650;2024-02-26T11:46:28;99796.91;;;7.44;100.00
14612;BME280;7392;52.078;11.650;2024-02-26T11:49:01;99802.19;;;7.46;100.00
14612;BME280;7392;52.078;11.650;2024-02-26T11:51:33;99806.59;;;7.50;100.00
14612;BME280;7392;52.078;11.650;2024-02-26T11:54:01;99810.97;;;7.53;100.00
14612;BME280;7392;52.078;11.650;2024-02-26T11:56:29;99809.19;;;7.53;100.00
14612;BME280;7392;52.078;11.650;2024-02-26T11:59:04;99815.38;;;7.55;100.00
14612;BME280;7392;52.078;11.650;2024-02-26T12:01:45;99804.75;;;7.60;100.00
14612;BME280;7392;52.078;11.650;2024-02-26T12:04:17;99814.44;;;7.62;100.00
14612;BME280;7392;52.078;11.650;2024-02-26T12:06:50;99810.91;;;7.65;100.00
14612;BME280;7392;52.078;11.650;2024-02-26T12:09:31;99816.16;;;7.68;100.00
14612;BME280;7392;52.078;11.650;2024-02-26T12:12:01;99808.25;;;7.70;100.00
14612;BME280;7392;52.078;11.650;2024-02-26T12:14:32;99810.00;;;7.71;100.00
14612;BME280;7392;52.078;11.650;2024-02-26T12:17:02;99809.97;;;7.75;100.00
14612;BME280;7392;52.078;11.650;2024-02-26T12:19:34;99811.72;;;7.81;100.00
14612;BME280;7392;52.078;11.650;2024-02-26T12:22:06;99814.31;;;7.85;100.00
14612;BME280;7392;52.078;11.650;2024-02-26T12:24:34;99821.34;;;7.91;100.00
14612;BME280;7392;52.078;11.650;2024-02-26T12:27:03;99827.47;;;7.98;100.00
14612;BME280;7392;52.078;11.650;2024-02-26T12:29:31;99825.63;;;8.06;100.00
14612;BME280;7392;52.078;11.650;2024-02-26T12:31:59;99827.38;;;8.13;100.00
14612;BME280;7392;52.078;11.650;2024-02-26T12:34:32;99825.53;;;8.23;100.00
14612;BME280;7392;52.078;11.650;2024-02-26T12:37:01;99821.06;;;8.31;100.00
14612;BME280;7392;52.078;11.650;2024-02-26T12:39:29;99824.53;;;8.41;100.00
14612;BME280;7392;52.078;11.650;2024-02-26T12:41:57;99821.84;;;8.49;100.00
14612;BME280;7392;52.078;11.650;2024-02-26T12:44:27;99829.72;;;8.56;100.00
14612;BME280;7392;52.078;11.650;2024-02-26T12:46:59;99824.41;;;8.59;100.00
14612;BME280;7392;52.078;11.650;2024-02-26T12:49:29;99823.47;;;8.64;100.00
14612;BME280;7392;52.078;11.650;2024-02-26T12:51:59;99828.75;;;8.67;100.00
14612;BME280;7392;52.078;11.650;2024-02-26T12:54:29;99819.88;;;8.69;100.00
14612;BME280;7392;52.078;11.650;2024-02-26T12:56:59;99828.72;;;8.71;100.00
14612;BME280;7392;52.078;11.650;2024-02-26T12:59:28;99825.19;;;8.71;100.00
14612;BME280;7392;52.078;11.650;2024-02-26T13:01:57;99832.25;;;8.72;99.90
14612;BME280;7392;52.078;11.650;2024-02-26T13:04:28;99834.88;;;8.75;100.00